WMKN/TGG METAR and TAF weather

Enter ICAO airport designator
Station Type Date Time Source
WMKN METAR 2021/01/22 06:00 UTC NOAA

WMKN 220600Z VRB03KT 9999 SCT016 28/24 Q1010


Station Type Date Time Source
WMKN Decoded METAR 2021/01/22 06:00 UTC NOAA

Station name not available
Jan 22, 2021 - 01:00 AM EST / 2021.01.22 0600 UTC
Wind: Variable at 3 MPH (3 KT):0
Visibility: greater than 7 mile(s):0
Sky conditions: partly cloudy
Temperature: 82 F (28 C)
Dew Point: 75 F (24 C)
Relative Humidity: 78%
Pressure (altimeter): 29.83 in. Hg (1010 hPa)
ob: WMKN 220600Z VRB03KT 9999 SCT016 28/24 Q1010
cycle: 6

Station Type Date Time Source
WMKN TAF 2021/01/22 06:00 UTC NOAA

TAF WMKN 220500Z 2206/2306 06006KT 9999 FEW018
BECMG 2212/2213 VRB03KT FEW022

Example: see airport list